sensor_id;sensor_type;location;lat;lon;timestamp;P1;durP1;ratioP1;P2;durP2;ratioP2
24739;SDS011;45234;48.148;17.128;2024-01-27T00:02:14;1.80;;;1.10;;
24739;SDS011;45234;48.148;17.128;2024-01-27T00:04:41;2.10;;;0.82;;
24739;SDS011;45234;48.148;17.128;2024-01-27T00:07:08;3.80;;;1.15;;
24739;SDS011;45234;48.148;17.128;2024-01-27T00:09:36;3.10;;;0.93;;
24739;SDS011;45234;48.148;17.128;2024-01-27T00:12:02;1.30;;;0.63;;
24739;SDS011;45234;48.148;17.128;2024-01-27T00:14:30;1.50;;;0.82;;
24739;SDS011;45234;48.148;17.128;2024-01-27T00:16:56;4.63;;;1.15;;
24739;SDS011;45234;48.148;17.128;2024-01-27T00:19:25;1.48;;;1.00;;
24739;SDS011;45234;48.148;17.128;2024-01-27T00:21:52;7.07;;;1.27;;
24739;SDS011;45234;48.148;17.128;2024-01-27T00:24:19;1.98;;;0.93;;
24739;SDS011;45234;48.148;17.128;2024-01-27T00:26:45;2.78;;;1.10;;
24739;SDS011;45234;48.148;17.128;2024-01-27T00:29:13;2.75;;;0.82;;
24739;SDS011;45234;48.148;17.128;2024-01-27T00:31:40;3.88;;;1.20;;
24739;SDS011;45234;48.148;17.128;2024-01-27T00:34:07;4.38;;;1.33;;
24739;SDS011;45234;48.148;17.128;2024-01-27T00:36:34;3.38;;;1.00;;
24739;SDS011;45234;48.148;17.128;2024-01-27T00:39:03;2.78;;;1.20;;
24739;SDS011;45234;48.148;17.128;2024-01-27T00:41:30;1.23;;;1.00;;
24739;SDS011;45234;48.148;17.128;2024-01-27T00:43:57;2.22;;;0.82;;
24739;SDS011;45234;48.148;17.128;2024-01-27T00:46:24;7.35;;;1.38;;
24739;SDS011;45234;48.148;17.128;2024-01-27T00:48:51;2.58;;;0.90;;
24739;SDS011;45234;48.148;17.128;2024-01-27T00:51:18;4.80;;;1.35;;
24739;SDS011;45234;48.148;17.128;2024-01-27T00:53:46;2.78;;;0.90;;
24739;SDS011;45234;48.148;17.128;2024-01-27T00:56:13;2.85;;;0.70;;
24739;SDS011;45234;48.148;17.128;2024-01-27T00:58:39;1.70;;;1.10;;
24739;SDS011;45234;48.148;17.128;2024-01-27T01:01:07;3.10;;;1.15;;
24739;SDS011;45234;48.148;17.128;2024-01-27T01:03:34;1.63;;;1.08;;
24739;SDS011;45234;48.148;17.128;2024-01-27T01:06:01;4.72;;;1.10;;
24739;SDS011;45234;48.148;17.128;2024-01-27T01:08:29;2.85;;;1.38;;
24739;SDS011;45234;48.148;17.128;2024-01-27T01:10:57;2.15;;;1.00;;
24739;SDS011;45234;48.148;17.128;2024-01-27T01:13:24;5.45;;;1.05;;
24739;SDS011;45234;48.148;17.128;2024-01-27T01:15:51;2.00;;;0.90;;
24739;SDS011;45234;48.148;17.128;2024-01-27T01:18:18;1.98;;;0.75;;
24739;SDS011;45234;48.148;17.128;2024-01-27T01:20:45;3.53;;;1.00;;
24739;SDS011;45234;48.148;17.128;2024-01-27T01:23:12;3.47;;;0.95;;
24739;SDS011;45234;48.148;17.128;2024-01-27T01:25:39;2.78;;;1.02;;
24739;SDS011;45234;48.148;17.128;2024-01-27T01:28:06;1.10;;;0.77;;
24739;SDS011;45234;48.148;17.128;2024-01-27T01:30:33;1.48;;;0.80;;
24739;SDS011;45234;48.148;17.128;2024-01-27T01:33:00;1.50;;;0.80;;
24739;SDS011;45234;48.148;17.128;2024-01-27T01:35:27;7.05;;;1.30;;
24739;SDS011;45234;48.148;17.128;2024-01-27T01:37:54;1.73;;;0.90;;
24739;SDS011;45234;48.148;17.128;2024-01-27T01:40:21;2.58;;;0.80;;
24739;SDS011;45234;48.148;17.128;2024-01-27T01:42:51;2.47;;;0.80;;
24739;SDS011;45234;48.148;17.128;2024-01-27T01:45:18;1.05;;;0.70;;
24739;SDS011;45234;48.148;17.128;2024-01-27T01:47:46;2.60;;;1.35;;
24739;SDS011;45234;48.148;17.128;2024-01-27T01:50:13;2.05;;;0.90;;
24739;SDS011;45234;48.148;17.128;2024-01-27T01:52:41;3.10;;;0.98;;
24739;SDS011;45234;48.148;17.128;2024-01-27T01:55:08;1.20;;;0.90;;
24739;SDS011;45234;48.148;17.128;2024-01-27T01:57:37;2.15;;;0.95;;
24739;SDS011;45234;48.148;17.128;2024-01-27T02:00:05;1.60;;;0.93;;
24739;SDS011;45234;48.148;17.128;2024-01-27T02:02:37;4.43;;;1.08;;
24739;SDS011;45234;48.148;17.128;2024-01-27T02:05:04;3.95;;;0.90;;
24739;SDS011;45234;48.148;17.128;2024-01-27T02:07:31;2.50;;;0.80;;
24739;SDS011;45234;48.148;17.128;2024-01-27T02:09:58;2.28;;;0.80;;
24739;SDS011;45234;48.148;17.128;2024-01-27T02:12:25;5.80;;;1.00;;
24739;SDS011;45234;48.148;17.128;2024-01-27T02:14:52;1.90;;;1.23;;
24739;SDS011;45234;48.148;17.128;2024-01-27T02:17:19;2.88;;;1.17;;
24739;SDS011;45234;48.148;17.128;2024-01-27T02:19:46;1.60;;;0.70;;
24739;SDS011;45234;48.148;17.128;2024-01-27T02:22:13;1.38;;;0.70;;
24739;SDS011;45234;48.148;17.128;2024-01-27T02:24:39;2.17;;;1.20;;
24739;SDS011;45234;48.148;17.128;2024-01-27T02:27:06;1.85;;;1.17;;
24739;SDS011;45234;48.148;17.128;2024-01-27T02:29:33;1.33;;;0.80;;
24739;SDS011;45234;48.148;17.128;2024-01-27T02:32:00;1.60;;;0.93;;
24739;SDS011;45234;48.148;17.128;2024-01-27T02:34:27;1.25;;;0.90;;
24739;SDS011;45234;48.148;17.128;2024-01-27T02:36:54;4.43;;;1.05;;
24739;SDS011;45234;48.148;17.128;2024-01-27T02:39:21;2.28;;;0.65;;
24739;SDS011;45234;48.148;17.128;2024-01-27T02:41:48;2.50;;;0.90;;
24739;SDS011;45234;48.148;17.128;2024-01-27T02:44:15;2.10;;;0.65;;
24739;SDS011;45234;48.148;17.128;2024-01-27T02:46:42;1.63;;;0.90;;
24739;SDS011;45234;48.148;17.128;2024-01-27T02:49:10;1.55;;;0.70;;
24739;SDS011;45234;48.148;17.128;2024-01-27T02:51:37;2.78;;;0.88;;
24739;SDS011;45234;48.148;17.128;2024-01-27T02:54:04;1.63;;;0.80;;
24739;SDS011;45234;48.148;17.128;2024-01-27T02:56:31;2.15;;;0.90;;
24739;SDS011;45234;48.148;17.128;2024-01-27T02:58:58;2.85;;;0.90;;
24739;SDS011;45234;48.148;17.128;2024-01-27T03:01:25;2.45;;;1.00;;
24739;SDS011;45234;48.148;17.128;2024-01-27T03:03:52;2.25;;;0.90;;
24739;SDS011;45234;48.148;17.128;2024-01-27T03:06:19;2.90;;;0.90;;
24739;SDS011;45234;48.148;17.128;2024-01-27T03:08:46;2.00;;;1.20;;
24739;SDS011;45234;48.148;17.128;2024-01-27T03:11:12;1.95;;;0.90;;
24739;SDS011;45234;48.148;17.128;2024-01-27T03:13:39;1.40;;;0.77;;
24739;SDS011;45234;48.148;17.128;2024-01-27T03:16:11;1.90;;;1.05;;
24739;SDS011;45234;48.148;17.128;2024-01-27T03:18:38;2.25;;;0.80;;
24739;SDS011;45234;48.148;17.128;2024-01-27T03:21:08;1.65;;;1.17;;
24739;SDS011;45234;48.148;17.128;2024-01-27T03:23:35;2.83;;;1.00;;
24739;SDS011;45234;48.148;17.128;2024-01-27T03:26:02;2.80;;;0.77;;
24739;SDS011;45234;48.148;17.128;2024-01-27T03:28:32;4.53;;;1.00;;
24739;SDS011;45234;48.148;17.128;2024-01-27T03:30:59;1.38;;;0.80;;
24739;SDS011;45234;48.148;17.128;2024-01-27T03:33:26;3.20;;;1.00;;
24739;SDS011;45234;48.148;17.128;2024-01-27T03:35:55;1.90;;;1.00;;
24739;SDS011;45234;48.148;17.128;2024-01-27T03:38:22;1.40;;;1.00;;
24739;SDS011;45234;48.148;17.128;2024-01-27T03:40:49;1.85;;;0.80;;
24739;SDS011;45234;48.148;17.128;2024-01-27T03:43:16;1.48;;;0.80;;
24739;SDS011;45234;48.148;17.128;2024-01-27T03:45:43;2.05;;;1.05;;
24739;SDS011;45234;48.148;17.128;2024-01-27T03:48:10;2.35;;;1.05;;
24739;SDS011;45234;48.148;17.128;2024-01-27T03:50:38;3.33;;;1.13;;
24739;SDS011;45234;48.148;17.128;2024-01-27T03:53:05;2.85;;;0.70;;
24739;SDS011;45234;48.148;17.128;2024-01-27T03:55:32;1.00;;;0.50;;
24739;SDS011;45234;48.148;17.128;2024-01-27T03:58:00;3.88;;;1.00;;
24739;SDS011;45234;48.148;17.128;2024-01-27T04:00:27;1.90;;;1.00;;
24739;SDS011;45234;48.148;17.128;2024-01-27T04:02:58;2.58;;;1.00;;
24739;SDS011;45234;48.148;17.128;2024-01-27T04:05:26;2.40;;;0.98;;
24739;SDS011;45234;48.148;17.128;2024-01-27T04:07:54;1.30;;;0.70;;
24739;SDS011;45234;48.148;17.128;2024-01-27T04:10:21;2.42;;;0.93;;
24739;SDS011;45234;48.148;17.128;2024-01-27T04:12:49;3.03;;;0.95;;
24739;SDS011;45234;48.148;17.128;2024-01-27T04:15:16;5.40;;;0.95;;
24739;SDS011;45234;48.148;17.128;2024-01-27T04:17:43;1.48;;;0.80;;
24739;SDS011;45234;48.148;17.128;2024-01-27T04:20:10;2.63;;;1.00;;
24739;SDS011;45234;48.148;17.128;2024-01-27T04:22:38;2.55;;;1.02;;
24739;SDS011;45234;48.148;17.128;2024-01-27T04:25:05;1.98;;;1.00;;
24739;SDS011;45234;48.148;17.128;2024-01-27T04:27:36;1.77;;;0.80;;
24739;SDS011;45234;48.148;17.128;2024-01-27T04:30:06;5.45;;;0.98;;
24739;SDS011;45234;48.148;17.128;2024-01-27T04:32:35;2.05;;;1.00;;
24739;SDS011;45234;48.148;17.128;2024-01-27T04:35:02;3.10;;;0.88;;
24739;SDS011;45234;48.148;17.128;2024-01-27T04:37:29;3.28;;;1.10;;
24739;SDS011;45234;48.148;17.128;2024-01-27T04:39:57;3.97;;;1.08;;
24739;SDS011;45234;48.148;17.128;2024-01-27T04:42:23;3.50;;;1.35;;
24739;SDS011;45234;48.148;17.128;2024-01-27T04:44:50;1.92;;;0.95;;
24739;SDS011;45234;48.148;17.128;2024-01-27T04:47:17;3.75;;;1.40;;
24739;SDS011;45234;48.148;17.128;2024-01-27T04:49:44;1.88;;;1.00;;
24739;SDS011;45234;48.148;17.128;2024-01-27T04:52:11;1.77;;;0.85;;
24739;SDS011;45234;48.148;17.128;2024-01-27T04:54:38;1.20;;;0.80;;
24739;SDS011;45234;48.148;17.128;2024-01-27T04:57:05;1.70;;;1.10;;
24739;SDS011;45234;48.148;17.128;2024-01-27T04:59:32;3.10;;;0.95;;
24739;SDS011;45234;48.148;17.128;2024-01-27T05:01:59;4.00;;;1.00;;
24739;SDS011;45234;48.148;17.128;2024-01-27T05:04:26;2.70;;;0.60;;
24739;SDS011;45234;48.148;17.128;2024-01-27T05:06:53;4.03;;;1.00;;
24739;SDS011;45234;48.148;17.128;2024-01-27T05:09:20;1.48;;;1.05;;
24739;SDS011;45234;48.148;17.128;2024-01-27T05:11:48;1.58;;;0.73;;
24739;SDS011;45234;48.148;17.128;2024-01-27T05:14:17;1.98;;;1.25;;
24739;SDS011;45234;48.148;17.128;2024-01-27T05:16:44;8.60;;;1.25;;
24739;SDS011;45234;48.148;17.128;2024-01-27T05:19:11;3.65;;;0.73;;
24739;SDS011;45234;48.148;17.128;2024-01-27T05:21:38;2.65;;;0.70;;
24739;SDS011;45234;48.148;17.128;2024-01-27T05:24:05;1.67;;;0.95;;
24739;SDS011;45234;48.148;17.128;2024-01-27T05:26:32;1.52;;;1.00;;
24739;SDS011;45234;48.148;17.128;2024-01-27T05:28:59;1.77;;;1.10;;
24739;SDS011;45234;48.148;17.128;2024-01-27T05:31:26;2.35;;;1.00;;
24739;SDS011;45234;48.148;17.128;2024-01-27T05:33:53;5.45;;;1.17;;
24739;SDS011;45234;48.148;17.128;2024-01-27T05:36:21;1.83;;;0.80;;
24739;SDS011;45234;48.148;17.128;2024-01-27T05:38:47;2.67;;;1.00;;
24739;SDS011;45234;48.148;17.128;2024-01-27T05:41:14;2.90;;;0.98;;
24739;SDS011;45234;48.148;17.128;2024-01-27T05:43:41;1.83;;;1.10;;
24739;SDS011;45234;48.148;17.128;2024-01-27T05:46:09;2.22;;;1.20;;
24739;SDS011;45234;48.148;17.128;2024-01-27T05:48:36;1.73;;;1.08;;
24739;SDS011;45234;48.148;17.128;2024-01-27T05:51:03;5.65;;;0.98;;
24739;SDS011;45234;48.148;17.128;2024-01-27T05:53:30;3.33;;;1.45;;
24739;SDS011;45234;48.148;17.128;2024-01-27T05:56:00;3.13;;;1.13;;
24739;SDS011;45234;48.148;17.128;2024-01-27T05:58:27;2.78;;;1.00;;
24739;SDS011;45234;48.148;17.128;2024-01-27T06:00:54;1.95;;;0.90;;
24739;SDS011;45234;48.148;17.128;2024-01-27T06:03:21;4.60;;;1.23;;
24739;SDS011;45234;48.148;17.128;2024-01-27T06:05:48;3.78;;;1.17;;
24739;SDS011;45234;48.148;17.128;2024-01-27T06:08:15;1.95;;;1.08;;
24739;SDS011;45234;48.148;17.128;2024-01-27T06:10:44;2.65;;;0.80;;
24739;SDS011;45234;48.148;17.128;2024-01-27T06:13:11;3.13;;;1.08;;
24739;SDS011;45234;48.148;17.128;2024-01-27T06:15:38;3.85;;;1.23;;
24739;SDS011;45234;48.148;17.128;2024-01-27T06:18:05;4.05;;;0.95;;
24739;SDS011;45234;48.148;17.128;2024-01-27T06:20:32;3.15;;;1.50;;
24739;SDS011;45234;48.148;17.128;2024-01-27T06:22:59;3.35;;;1.02;;
24739;SDS011;45234;48.148;17.128;2024-01-27T06:25:26;4.03;;;1.30;;
24739;SDS011;45234;48.148;17.128;2024-01-27T06:27:53;3.13;;;1.10;;
24739;SDS011;45234;48.148;17.128;2024-01-27T06:30:20;3.92;;;1.30;;
24739;SDS011;45234;48.148;17.128;2024-01-27T06:32:47;3.55;;;1.35;;
24739;SDS011;45234;48.148;17.128;2024-01-27T06:35:14;1.65;;;0.90;;
24739;SDS011;45234;48.148;17.128;2024-01-27T06:37:41;2.00;;;0.80;;
24739;SDS011;45234;48.148;17.128;2024-01-27T06:40:08;1.50;;;0.90;;
24739;SDS011;45234;48.148;17.128;2024-01-27T06:42:35;2.70;;;1.20;;
24739;SDS011;45234;48.148;17.128;2024-01-27T06:45:02;2.70;;;1.23;;
24739;SDS011;45234;48.148;17.128;2024-01-27T06:47:30;2.53;;;1.00;;
24739;SDS011;45234;48.148;17.128;2024-01-27T06:49:57;3.10;;;1.02;;
24739;SDS011;45234;48.148;17.128;2024-01-27T06:52:24;3.78;;;1.30;;
24739;SDS011;45234;48.148;17.128;2024-01-27T06:54:51;3.38;;;1.27;;
24739;SDS011;45234;48.148;17.128;2024-01-27T06:57:21;3.42;;;1.17;;
24739;SDS011;45234;48.148;17.128;2024-01-27T06:59:50;4.72;;;1.50;;
24739;SDS011;45234;48.148;17.128;2024-01-27T07:02:22;2.08;;;1.13;;
24739;SDS011;45234;48.148;17.128;2024-01-27T07:04:50;5.65;;;1.05;;
24739;SDS011;45234;48.148;17.128;2024-01-27T07:07:17;3.47;;;1.30;;
24739;SDS011;45234;48.148;17.128;2024-01-27T07:09:46;4.40;;;1.13;;
24739;SDS011;45234;48.148;17.128;2024-01-27T07:12:13;3.22;;;1.50;;
24739;SDS011;45234;48.148;17.128;2024-01-27T07:14:40;4.47;;;1.23;;
24739;SDS011;45234;48.148;17.128;2024-01-27T07:17:07;4.30;;;1.45;;
24739;SDS011;45234;48.148;17.128;2024-01-27T07:19:34;7.40;;;1.63;;
24739;SDS011;45234;48.148;17.128;2024-01-27T07:22:01;5.22;;;1.05;;
24739;SDS011;45234;48.148;17.128;2024-01-27T07:24:29;3.00;;;1.23;;
24739;SDS011;45234;48.148;17.128;2024-01-27T07:26:57;3.67;;;1.35;;
24739;SDS011;45234;48.148;17.128;2024-01-27T07:29:26;3.15;;;1.10;;
24739;SDS011;45234;48.148;17.128;2024-01-27T07:31:53;6.22;;;1.48;;
24739;SDS011;45234;48.148;17.128;2024-01-27T07:34:21;3.35;;;1.35;;
24739;SDS011;45234;48.148;17.128;2024-01-27T07:36:48;4.32;;;1.60;;
24739;SDS011;45234;48.148;17.128;2024-01-27T07:39:15;3.22;;;1.30;;
24739;SDS011;45234;48.148;17.128;2024-01-27T07:41:42;4.00;;;1.63;;
24739;SDS011;45234;48.148;17.128;2024-01-27T07:44:09;2.70;;;1.10;;
24739;SDS011;45234;48.148;17.128;2024-01-27T07:46:40;4.53;;;1.48;;
24739;SDS011;45234;48.148;17.128;2024-01-27T07:49:08;3.22;;;1.73;;
24739;SDS011;45234;48.148;17.128;2024-01-27T07:51:35;3.17;;;1.60;;
24739;SDS011;45234;48.148;17.128;2024-01-27T07:54:02;3.17;;;1.30;;
24739;SDS011;45234;48.148;17.128;2024-01-27T07:56:29;4.18;;;1.63;;
24739;SDS011;45234;48.148;17.128;2024-01-27T07:58:56;4.13;;;1.52;;
24739;SDS011;45234;48.148;17.128;2024-01-27T08:01:23;4.55;;;1.20;;
24739;SDS011;45234;48.148;17.128;2024-01-27T08:03:50;3.45;;;1.42;;
24739;SDS011;45234;48.148;17.128;2024-01-27T08:06:21;5.40;;;1.92;;
24739;SDS011;45234;48.148;17.128;2024-01-27T08:08:57;2.92;;;1.42;;
24739;SDS011;45234;48.148;17.128;2024-01-27T08:11:25;5.35;;;2.13;;
24739;SDS011;45234;48.148;17.128;2024-01-27T08:13:52;5.20;;;1.30;;
24739;SDS011;45234;48.148;17.128;2024-01-27T08:16:19;3.08;;;1.45;;
24739;SDS011;45234;48.148;17.128;2024-01-27T08:18:47;3.90;;;1.48;;
24739;SDS011;45234;48.148;17.128;2024-01-27T08:21:15;4.28;;;1.67;;
24739;SDS011;45234;48.148;17.128;2024-01-27T08:23:42;5.00;;;1.60;;
24739;SDS011;45234;48.148;17.128;2024-01-27T08:26:10;5.63;;;1.63;;
24739;SDS011;45234;48.148;17.128;2024-01-27T08:28:37;7.55;;;1.80;;
24739;SDS011;45234;48.148;17.128;2024-01-27T08:31:04;6.22;;;2.08;;
24739;SDS011;45234;48.148;17.128;2024-01-27T08:33:31;4.75;;;1.90;;
24739;SDS011;45234;48.148;17.128;2024-01-27T08:35:58;5.85;;;1.58;;
24739;SDS011;45234;48.148;17.128;2024-01-27T08:38:25;8.93;;;1.80;;
24739;SDS011;45234;48.148;17.128;2024-01-27T08:40:52;4.13;;;1.50;;
24739;SDS011;45234;48.148;17.128;2024-01-27T08:43:19;5.57;;;2.13;;
24739;SDS011;45234;48.148;17.128;2024-01-27T08:45:45;8.13;;;1.90;;
24739;SDS011;45234;48.148;17.128;2024-01-27T08:48:12;3.80;;;1.45;;
24739;SDS011;45234;48.148;17.128;2024-01-27T08:50:40;4.40;;;1.63;;
24739;SDS011;45234;48.148;17.128;2024-01-27T08:53:07;6.10;;;1.48;;
24739;SDS011;45234;48.148;17.128;2024-01-27T08:55:34;3.08;;;1.77;;
24739;SDS011;45234;48.148;17.128;2024-01-27T08:58:01;8.70;;;2.40;;
24739;SDS011;45234;48.148;17.128;2024-01-27T09:00:28;19.35;;;2.40;;
24739;SDS011;45234;48.148;17.128;2024-01-27T09:02:55;9.93;;;2.58;;
24739;SDS011;45234;48.148;17.128;2024-01-27T09:05:22;6.63;;;1.70;;
24739;SDS011;45234;48.148;17.128;2024-01-27T09:07:49;6.47;;;2.03;;
24739;SDS011;45234;48.148;17.128;2024-01-27T09:10:16;5.82;;;2.25;;
24739;SDS011;45234;48.148;17.128;2024-01-27T09:12:43;5.28;;;2.05;;
24739;SDS011;45234;48.148;17.128;2024-01-27T09:15:10;9.88;;;1.77;;
24739;SDS011;45234;48.148;17.128;2024-01-27T09:17:38;3.70;;;1.73;;
24739;SDS011;45234;48.148;17.128;2024-01-27T09:20:05;6.82;;;1.60;;
24739;SDS011;45234;48.148;17.128;2024-01-27T09:22:33;8.40;;;2.20;;
24739;SDS011;45234;48.148;17.128;2024-01-27T09:25:00;5.38;;;1.63;;
24739;SDS011;45234;48.148;17.128;2024-01-27T09:27:28;2.67;;;1.45;;
24739;SDS011;45234;48.148;17.128;2024-01-27T09:29:55;5.53;;;2.28;;
24739;SDS011;45234;48.148;17.128;2024-01-27T09:32:22;6.03;;;1.80;;
24739;SDS011;45234;48.148;17.128;2024-01-27T09:34:49;6.00;;;1.92;;
24739;SDS011;45234;48.148;17.128;2024-01-27T09:37:19;4.60;;;2.00;;
24739;SDS011;45234;48.148;17.128;2024-01-27T09:39:46;8.75;;;2.08;;
24739;SDS011;45234;48.148;17.128;2024-01-27T09:42:13;6.65;;;1.80;;
24739;SDS011;45234;48.148;17.128;2024-01-27T09:44:43;6.53;;;1.52;;
24739;SDS011;45234;48.148;17.128;2024-01-27T09:47:13;6.38;;;1.70;;
24739;SDS011;45234;48.148;17.128;2024-01-27T09:49:42;6.82;;;2.38;;
24739;SDS011;45234;48.148;17.128;2024-01-27T09:52:09;3.33;;;1.70;;
24739;SDS011;45234;48.148;17.128;2024-01-27T09:54:37;5.35;;;2.38;;
24739;SDS011;45234;48.148;17.128;2024-01-27T09:57:06;5.70;;;1.92;;
24739;SDS011;45234;48.148;17.128;2024-01-27T09:59:38;4.88;;;1.55;;
24739;SDS011;45234;48.148;17.128;2024-01-27T10:02:11;13.75;;;2.35;;
24739;SDS011;45234;48.148;17.128;2024-01-27T10:04:40;4.20;;;1.40;;
24739;SDS011;45234;48.148;17.128;2024-01-27T10:07:08;7.68;;;1.55;;
24739;SDS011;45234;48.148;17.128;2024-01-27T10:09:35;7.68;;;2.25;;
24739;SDS011;45234;48.148;17.128;2024-01-27T10:12:02;6.80;;;1.52;;
24739;SDS011;45234;48.148;17.128;2024-01-27T10:14:40;7.70;;;1.77;;
24739;SDS011;45234;48.148;17.128;2024-01-27T10:17:10;6.18;;;1.75;;
24739;SDS011;45234;48.148;17.128;2024-01-27T10:19:38;6.13;;;1.95;;
24739;SDS011;45234;48.148;17.128;2024-01-27T10:22:10;7.13;;;1.63;;
24739;SDS011;45234;48.148;17.128;2024-01-27T10:24:37;8.55;;;1.92;;
24739;SDS011;45234;48.148;17.128;2024-01-27T10:27:04;12.75;;;1.83;;
24739;SDS011;45234;48.148;17.128;2024-01-27T10:29:32;9.13;;;1.83;;
24739;SDS011;45234;48.148;17.128;2024-01-27T10:32:08;6.03;;;1.88;;
24739;SDS011;45234;48.148;17.128;2024-01-27T10:34:36;5.70;;;1.85;;
24739;SDS011;45234;48.148;17.128;2024-01-27T10:37:03;5.88;;;1.90;;
24739;SDS011;45234;48.148;17.128;2024-01-27T10:39:30;6.72;;;1.85;;
24739;SDS011;45234;48.148;17.128;2024-01-27T10:41:57;6.43;;;1.73;;
24739;SDS011;45234;48.148;17.128;2024-01-27T10:44:28;6.80;;;2.03;;
24739;SDS011;45234;48.148;17.128;2024-01-27T10:46:55;6.30;;;1.83;;
24739;SDS011;45234;48.148;17.128;2024-01-27T10:49:27;8.02;;;1.60;;
24739;SDS011;45234;48.148;17.128;2024-01-27T10:51:58;6.07;;;1.88;;
24739;SDS011;45234;48.148;17.128;2024-01-27T10:54:27;8.60;;;1.88;;
24739;SDS011;45234;48.148;17.128;2024-01-27T10:56:56;4.60;;;1.48;;
24739;SDS011;45234;48.148;17.128;2024-01-27T10:59:28;6.80;;;2.70;;
24739;SDS011;45234;48.148;17.128;2024-01-27T11:01:56;5.22;;;2.15;;
24739;SDS011;45234;48.148;17.128;2024-01-27T11:04:24;8.13;;;2.83;;
24739;SDS011;45234;48.148;17.128;2024-01-27T11:06:52;6.15;;;1.75;;
24739;SDS011;45234;48.148;17.128;2024-01-27T11:09:21;6.85;;;1.85;;
24739;SDS011;45234;48.148;17.128;2024-01-27T11:11:49;4.90;;;1.85;;
24739;SDS011;45234;48.148;17.128;2024-01-27T11:14:16;2.95;;;1.92;;
24739;SDS011;45234;48.148;17.128;2024-01-27T11:16:43;5.10;;;1.70;;
24739;SDS011;45234;48.148;17.128;2024-01-27T11:19:13;6.20;;;2.28;;
24739;SDS011;45234;48.148;17.128;2024-01-27T11:21:42;8.20;;;2.15;;
24739;SDS011;45234;48.148;17.128;2024-01-27T11:24:18;6.35;;;2.00;;
24739;SDS011;45234;48.148;17.128;2024-01-27T11:26:59;5.95;;;1.92;;
24739;SDS011;45234;48.148;17.128;2024-01-27T11:29:30;4.07;;;1.63;;
24739;SDS011;45234;48.148;17.128;2024-01-27T11:32:01;5.97;;;2.08;;
24739;SDS011;45234;48.148;17.128;2024-01-27T11:34:28;5.85;;;1.77;;
24739;SDS011;45234;48.148;17.128;2024-01-27T11:37:12;4.38;;;1.58;;
24739;SDS011;45234;48.148;17.128;2024-01-27T11:39:42;5.00;;;1.40;;
24739;SDS011;45234;48.148;17.128;2024-01-27T11:42:10;6.00;;;2.17;;
24739;SDS011;45234;48.148;17.128;2024-01-27T11:44:40;11.43;;;2.03;;
24739;SDS011;45234;48.148;17.128;2024-01-27T11:47:15;7.40;;;1.95;;
24739;SDS011;45234;48.148;17.128;2024-01-27T11:49:51;5.10;;;1.88;;
24739;SDS011;45234;48.148;17.128;2024-01-27T11:52:20;5.28;;;1.30;;
24739;SDS011;45234;48.148;17.128;2024-01-27T11:54:57;3.42;;;2.03;;
24739;SDS011;45234;48.148;17.128;2024-01-27T11:57:25;4.55;;;1.65;;
24739;SDS011;45234;48.148;17.128;2024-01-27T11:59:53;8.35;;;2.40;;
24739;SDS011;45234;48.148;17.128;2024-01-27T12:02:21;7.45;;;1.90;;
24739;SDS011;45234;48.148;17.128;2024-01-27T12:04:48;5.65;;;2.15;;
24739;SDS011;45234;48.148;17.128;2024-01-27T12:07:16;9.98;;;1.88;;
24739;SDS011;45234;48.148;17.128;2024-01-27T12:09:48;3.67;;;1.58;;
24739;SDS011;45234;48.148;17.128;2024-01-27T12:12:16;6.57;;;2.03;;
24739;SDS011;45234;48.148;17.128;2024-01-27T12:14:47;7.43;;;1.80;;
24739;SDS011;45234;48.148;17.128;2024-01-27T12:17:16;5.60;;;1.88;;
24739;SDS011;45234;48.148;17.128;2024-01-27T12:19:51;7.97;;;1.77;;
24739;SDS011;45234;48.148;17.128;2024-01-27T12:24:53;6.65;;;1.88;;
24739;SDS011;45234;48.148;17.128;2024-01-27T12:27:22;6.32;;;2.17;;
24739;SDS011;45234;48.148;17.128;2024-01-27T12:29:49;6.25;;;1.90;;
24739;SDS011;45234;48.148;17.128;2024-01-27T12:32:16;5.25;;;1.92;;
24739;SDS011;45234;48.148;17.128;2024-01-27T12:34:44;7.30;;;2.30;;
24739;SDS011;45234;48.148;17.128;2024-01-27T12:37:11;5.32;;;1.63;;
24739;SDS011;45234;48.148;17.128;2024-01-27T12:39:43;7.60;;;2.05;;
24739;SDS011;45234;48.148;17.128;2024-01-27T12:42:10;7.85;;;1.70;;
24739;SDS011;45234;48.148;17.128;2024-01-27T12:44:38;4.45;;;1.73;;
24739;SDS011;45234;48.148;17.128;2024-01-27T12:47:06;6.05;;;2.15;;
24739;SDS011;45234;48.148;17.128;2024-01-27T12:49:34;3.75;;;1.98;;
24739;SDS011;45234;48.148;17.128;2024-01-27T12:52:02;4.70;;;1.85;;
24739;SDS011;45234;48.148;17.128;2024-01-27T12:54:29;4.45;;;2.10;;
24739;SDS011;45234;48.148;17.128;2024-01-27T12:56:57;5.80;;;1.92;;
24739;SDS011;45234;48.148;17.128;2024-01-27T12:59:24;7.07;;;2.03;;
24739;SDS011;45234;48.148;17.128;2024-01-27T13:01:50;5.50;;;1.73;;
24739;SDS011;45234;48.148;17.128;2024-01-27T13:04:18;8.50;;;2.35;;
24739;SDS011;45234;48.148;17.128;2024-01-27T13:06:45;9.52;;;1.80;;
24739;SDS011;45234;48.148;17.128;2024-01-27T13:09:12;6.10;;;2.25;;
24739;SDS011;45234;48.148;17.128;2024-01-27T13:11:39;8.30;;;2.60;;
24739;SDS011;45234;48.148;17.128;2024-01-27T13:14:06;8.88;;;1.92;;
24739;SDS011;45234;48.148;17.128;2024-01-27T13:16:35;5.85;;;2.00;;
24739;SDS011;45234;48.148;17.128;2024-01-27T13:19:02;8.13;;;2.17;;
24739;SDS011;45234;48.148;17.128;2024-01-27T13:21:29;5.43;;;1.90;;
24739;SDS011;45234;48.148;17.128;2024-01-27T13:23:56;5.90;;;2.38;;
24739;SDS011;45234;48.148;17.128;2024-01-27T13:26:23;4.78;;;2.20;;
24739;SDS011;45234;48.148;17.128;2024-01-27T13:28:52;8.18;;;2.08;;
24739;SDS011;45234;48.148;17.128;2024-01-27T13:31:19;6.97;;;2.33;;
24739;SDS011;45234;48.148;17.128;2024-01-27T13:33:46;9.70;;;4.15;;
24739;SDS011;45234;48.148;17.128;2024-01-27T13:36:14;6.85;;;1.65;;
24739;SDS011;45234;48.148;17.128;2024-01-27T13:38:42;6.32;;;2.30;;
24739;SDS011;45234;48.148;17.128;2024-01-27T13:41:09;6.63;;;2.45;;
24739;SDS011;45234;48.148;17.128;2024-01-27T13:43:36;10.07;;;2.65;;
24739;SDS011;45234;48.148;17.128;2024-01-27T13:46:03;7.07;;;2.53;;
24739;SDS011;45234;48.148;17.128;2024-01-27T13:48:30;4.80;;;2.40;;
24739;SDS011;45234;48.148;17.128;2024-01-27T13:50:58;4.57;;;2.13;;
24739;SDS011;45234;48.148;17.128;2024-01-27T13:53:25;5.43;;;1.65;;
24739;SDS011;45234;48.148;17.128;2024-01-27T13:56:08;10.98;;;2.30;;
24739;SDS011;45234;48.148;17.128;2024-01-27T13:58:34;7.93;;;2.20;;
24739;SDS011;45234;48.148;17.128;2024-01-27T14:01:01;5.10;;;2.10;;
24739;SDS011;45234;48.148;17.128;2024-01-27T14:03:29;8.73;;;2.30;;
24739;SDS011;45234;48.148;17.128;2024-01-27T14:05:56;7.90;;;2.20;;
24739;SDS011;45234;48.148;17.128;2024-01-27T14:08:24;5.25;;;2.35;;
24739;SDS011;45234;48.148;17.128;2024-01-27T14:10:51;5.47;;;2.17;;
24739;SDS011;45234;48.148;17.128;2024-01-27T14:13:18;7.85;;;2.10;;
24739;SDS011;45234;48.148;17.128;2024-01-27T14:15:45;6.55;;;1.98;;
24739;SDS011;45234;48.148;17.128;2024-01-27T14:18:12;6.50;;;2.22;;
24739;SDS011;45234;48.148;17.128;2024-01-27T14:20:47;5.18;;;2.22;;
24739;SDS011;45234;48.148;17.128;2024-01-27T14:23:14;6.55;;;2.10;;
24739;SDS011;45234;48.148;17.128;2024-01-27T14:25:41;5.13;;;2.05;;
24739;SDS011;45234;48.148;17.128;2024-01-27T14:28:12;8.70;;;2.60;;
24739;SDS011;45234;48.148;17.128;2024-01-27T14:30:40;7.57;;;2.38;;
24739;SDS011;45234;48.148;17.128;2024-01-27T14:33:07;6.88;;;2.40;;
24739;SDS011;45234;48.148;17.128;2024-01-27T14:35:34;5.95;;;2.20;;
24739;SDS011;45234;48.148;17.128;2024-01-27T14:38:02;10.43;;;2.33;;
24739;SDS011;45234;48.148;17.128;2024-01-27T14:40:30;6.78;;;2.63;;